createdAt,value
2018-04-28T17:43:12.403Z,17.60
2018-04-28T17:45:17.602Z,17.20
2018-04-28T17:47:22.236Z,17.20
2018-04-28T17:49:26.686Z,17.00
2018-04-28T17:51:31.981Z,16.60
2018-04-28T17:53:36.475Z,16.60
2018-04-28T17:55:40.890Z,16.50
2018-04-28T17:57:45.528Z,16.40
2018-04-28T17:59:50.178Z,16.40
2018-04-28T18:01:55.481Z,16.20
2018-04-28T18:03:59.889Z,16.20
2018-04-28T18:06:03.638Z,16.20
2018-04-28T18:08:08.143Z,16.10
2018-04-28T18:10:12.579Z,16.50
2018-04-28T18:12:17.775Z,16.10
2018-04-28T18:14:22.234Z,16.10
2018-04-28T18:16:27.423Z,16.00
2018-04-28T18:18:31.924Z,16.00
2018-04-28T18:20:36.487Z,16.00
2018-04-28T18:22:40.905Z,16.00
2018-04-28T18:24:46.195Z,15.90
2018-04-28T18:26:50.715Z,15.90
2018-04-28T18:28:55.233Z,15.90
2018-04-28T18:30:59.631Z,15.90
2018-04-28T18:33:04.168Z,15.70
2018-04-28T18:35:08.567Z,15.60
2018-04-28T18:37:12.783Z,15.50
2018-04-28T18:39:17.418Z,15.30
2018-04-28T18:41:21.874Z,15.20
2018-04-28T18:43:27.101Z,15.00
2018-04-28T18:45:31.591Z,15.00
2018-04-28T18:47:35.982Z,15.00
2018-04-28T18:49:40.450Z,15.00
2018-04-28T18:51:46.467Z,14.80
2018-04-28T18:53:51.026Z,14.80
2018-04-28T18:55:55.646Z,14.80
2018-04-28T18:58:00.091Z,14.80
2018-04-28T19:00:04.946Z,14.60
2018-04-28T19:02:09.402Z,14.50
2018-04-28T19:04:13.835Z,14.50
2018-04-28T19:06:18.270Z,14.50
2018-04-28T19:08:23.473Z,14.50
2018-04-28T19:10:27.902Z,14.50
2018-04-28T19:12:32.339Z,14.40
2018-04-28T19:14:37.553Z,14.30
2018-04-28T19:16:41.750Z,14.30
2018-04-28T19:18:46.183Z,14.10
2018-04-28T19:20:50.660Z,14.00
2018-04-28T19:22:55.818Z,14.10
2018-04-28T19:25:00.238Z,14.10
2018-04-28T19:27:04.678Z,14.10
2018-04-28T19:29:10.099Z,14.20
2018-04-28T19:31:14.573Z,14.20
2018-04-28T19:33:19.161Z,14.00
2018-04-28T19:35:24.527Z,14.10
2018-04-28T19:37:28.959Z,14.00
2018-04-28T19:39:33.427Z,13.80
2018-04-28T19:41:38.666Z,13.80
2018-04-28T19:43:43.810Z,13.80
2018-04-28T19:45:48.258Z,13.80
2018-04-28T19:47:52.707Z,13.80
2018-04-28T19:49:57.154Z,14.00
2018-04-28T19:52:01.572Z,13.90
2018-04-28T19:54:06.771Z,13.90
2018-04-28T19:56:11.203Z,13.80
2018-04-28T19:58:15.626Z,13.80
2018-04-28T20:00:20.134Z,13.90
2018-04-28T20:02:25.247Z,13.80
2018-04-28T20:04:29.686Z,13.80
2018-04-28T20:06:34.122Z,13.90
2018-04-28T20:08:39.515Z,13.80
2018-04-28T20:10:43.937Z,13.80
2018-04-28T20:12:48.378Z,13.80
2018-04-28T20:14:52.811Z,13.80
2018-04-28T20:16:58.017Z,13.70
2018-04-28T20:19:02.463Z,13.70
2018-04-28T20:21:07.651Z,13.70
2018-04-28T20:23:23.131Z,13.60
2018-04-28T20:25:27.602Z,13.80
2018-04-28T20:27:31.994Z,13.80
2018-04-28T20:29:37.186Z,13.80
2018-04-28T20:31:41.642Z,13.80
2018-04-28T20:33:46.070Z,13.80
2018-04-28T20:35:51.268Z,13.70
2018-04-28T20:37:55.898Z,13.70
2018-04-28T20:40:01.852Z,13.90
2018-04-28T20:42:06.274Z,13.90
2018-04-28T20:44:10.703Z,13.90
2018-04-28T20:46:15.163Z,13.90
2018-04-28T20:48:19.698Z,13.80
2018-04-28T20:50:23.765Z,13.80
2018-04-28T20:52:29.072Z,13.90
2018-04-28T20:54:33.498Z,13.90
2018-04-28T20:56:38.953Z,13.90
2018-04-28T20:58:44.162Z,13.90
2018-04-28T21:00:48.595Z,13.90
2018-04-28T21:02:53.511Z,13.80
2018-04-28T21:04:57.923Z,13.80
2018-04-28T21:07:02.361Z,13.80
2018-04-28T21:09:07.651Z,13.80
2018-04-28T21:11:12.067Z,13.70
2018-04-28T21:13:16.495Z,13.70
2018-04-28T21:15:20.915Z,13.80
2018-04-28T21:17:25.353Z,13.70
2018-04-28T21:19:29.807Z,13.80
2018-04-28T21:21:34.974Z,13.70
2018-04-28T21:23:39.419Z,13.60
2018-04-28T21:25:43.842Z,13.70
2018-04-28T21:27:49.058Z,13.70
2018-04-28T21:29:53.549Z,13.60
2018-04-28T21:31:57.985Z,13.70
2018-04-28T21:34:02.416Z,13.60
2018-04-28T21:36:06.906Z,13.60
2018-04-28T21:38:11.425Z,13.70
2018-04-28T21:40:15.827Z,13.60
2018-04-28T21:42:20.360Z,13.70
2018-04-28T21:44:25.604Z,13.50
2018-04-28T21:46:30.195Z,13.50
2018-04-28T21:48:35.007Z,13.40
2018-04-28T21:50:40.190Z,13.40
2018-04-28T21:52:44.900Z,13.40
2018-04-28T21:54:49.316Z,13.30
2018-04-28T21:56:53.739Z,13.20
2018-04-28T21:58:58.161Z,13.30
2018-04-28T22:01:02.610Z,13.20
2018-04-28T22:03:07.805Z,13.20
2018-04-28T22:05:11.963Z,13.20
2018-04-28T22:07:17.247Z,13.20
2018-04-28T22:09:21.638Z,13.10
2018-04-28T22:11:26.058Z,13.10
2018-04-28T22:13:30.739Z,13.20
2018-04-28T22:15:35.158Z,13.20
2018-04-28T22:17:39.591Z,13.10
2018-04-28T22:19:44.822Z,13.10
2018-04-28T22:21:49.246Z,13.10
2018-04-28T22:23:54.470Z,13.20
2018-04-28T22:25:59.759Z,13.10
2018-04-28T22:28:04.152Z,13.10
2018-04-28T22:30:08.584Z,13.10
2018-04-28T22:32:13.114Z,13.00
2018-04-28T22:34:17.238Z,12.90
2018-04-28T22:36:21.739Z,13.00
2018-04-28T22:38:26.158Z,13.00
2018-04-28T22:40:30.598Z,13.00
2018-04-28T22:42:36.542Z,13.00
2018-04-28T22:44:41.473Z,13.00
2018-04-28T22:46:45.923Z,12.90
2018-04-28T22:48:51.128Z,13.00
2018-04-28T22:50:55.554Z,13.00
2018-04-28T22:52:59.974Z,12.90
2018-04-28T22:55:03.743Z,12.90
2018-04-28T22:57:08.178Z,12.80
2018-04-28T22:59:12.615Z,12.80
2018-04-28T23:01:17.067Z,12.80
2018-04-28T23:03:22.478Z,12.90
2018-04-28T23:05:26.643Z,12.80
2018-04-28T23:07:31.368Z,12.80
2018-04-28T23:09:35.783Z,12.70
2018-04-28T23:11:40.199Z,12.80
2018-04-28T23:13:44.654Z,12.70
2018-04-28T23:15:49.092Z,12.80
2018-04-28T23:17:54.487Z,12.90
2018-04-28T23:19:58.924Z,12.90
2018-04-28T23:22:03.370Z,12.90
2018-04-28T23:24:07.178Z,12.80
2018-04-28T23:26:11.330Z,12.90
2018-04-28T23:28:15.966Z,12.80
2018-04-28T23:30:20.391Z,12.80
2018-04-28T23:32:24.828Z,13.00
2018-04-28T23:34:30.040Z,12.90
2018-04-28T23:36:34.482Z,12.90
2018-04-28T23:38:39.687Z,12.80
2018-04-28T23:40:44.175Z,12.80
2018-04-28T23:42:48.574Z,12.80
2018-04-28T23:44:53.010Z,12.80
2018-04-28T23:46:57.462Z,12.70
2018-04-28T23:49:01.911Z,12.60
2018-04-28T23:51:06.361Z,12.50
2018-04-28T23:53:10.531Z,12.50
2018-04-28T23:55:15.508Z,12.60
2018-04-28T23:57:20.019Z,12.60
2018-04-28T23:59:24.451Z,12.60
